Flight Track Log - Related Links

Times and Time Zones

All times are in EDT time to prevent confusion due to time zone crossing. See the GJS3657 flight status page for this flight to view local times or setup timezone preferences in your user account.

Time Position Orientation Groundspeed Altitude Reporting Facility
EDT Latitude Longitude Course Direction KTS MPH feet Rate Location/Type
Tue 10:49:23 PM 42.0181 -87.9222 47° Northeast 183 211 39,000  Level Chicago Center
Tue 10:49:54 PM 42.0333 -87.9000 47° Northeast 200 230 2,500 -24,565 Descending Chicago TRACON
Tue 10:50:48 PM 42.0833 -87.8500 37° Northeast 263 303 4,200 1,696 Climbing Chicago TRACON
Tue 10:51:26 PM 42.1219 -87.8236 27° Northeast 275 316 5,100 2,364 Climbing Chicago Center
Tue 10:52:27 PM 42.1714 -87.7422 51° Northeast 286 329 8,100 2,656 Climbing Chicago Center
Tue 10:53:28 PM 42.1881 -87.6333 78° East 301 346 10,500 2,607 Climbing Chicago Center
Tue 10:54:29 PM 42.2083 -87.5011 78° East 308 354 13,400 2,098 Climbing Chicago Center
Tue 10:55:31 PM 42.2283 -87.3789 77° East 335 386 14,800 1,415 Climbing Chicago Center
Tue 10:56:32 PM 42.2503 -87.2408 78° East 373 429 16,300 1,623 Climbing Chicago Center
Tue 10:57:33 PM 42.2744 -87.0978 77° East 389 448 18,100 1,328 Climbing Chicago Center
Tue 10:58:34 PM 42.2842 -86.9481 85° East 399 459 19,000 1,033 Climbing Chicago Center
Tue 10:59:35 PM 42.2903 -86.7897 87° East 418 481 20,200 976 Climbing Chicago Center
Tue 11:00:37 PM 42.2972 -86.6303 87° East 425 489 21,000 829 Climbing Chicago Center
Tue 11:01:38 PM 42.3022 -86.4750 87° East 437 503 21,900 984 Climbing Chicago Center
Tue 11:02:39 PM 42.3086 -86.3139 87° East 435 501 23,000 1,279 Climbing Chicago Center
Tue 11:03:40 PM 42.3153 -86.1142 87° East 445 512 24,500 1,475 Climbing Chicago Center
Tue 11:04:41 PM 42.3144 -85.9469 90° East 448 516 26,000 1,377 Climbing Chicago Center
Tue 11:05:42 PM 42.3117 -85.7803 91° East 448 516 27,300 1,122 Climbing Chicago Center
Tue 11:06:44 PM 42.3089 -85.6108 91° East 453 521 28,300 976 Climbing Chicago Center
Tue 11:07:45 PM 42.3075 -85.4342 91° East 466 536 29,300 984 Climbing Chicago Center
Tue 11:08:46 PM 42.3050 -85.2586 91° East 471 542 30,300 984 Climbing Chicago Center
Tue 11:09:47 PM 42.3022 -85.0806 91° East 475 547 31,300 984 Climbing Chicago Center
Tue 11:10:48 PM 42.2981 -84.9022 92° East 476 548 32,300 1,082 Climbing Chicago Center
Tue 11:11:49 PM 42.2925 -84.6881 92° East 479 551 33,500 1,073 Climbing Chicago Center
Tue 11:12:51 PM 42.2878 -84.5089 92° East 479 551 34,500 732 Climbing Chicago Center
Tue 11:13:52 PM 42.3061 -84.3331 82° East 478 550 35,000 246 Climbing Chicago Center
Tue 11:14:53 PM 42.3317 -84.1508 79° East 491 565 35,000  Level Chicago Center
Tue 11:15:54 PM 42.3589 -83.9642 79° East 503 579 35,000  Level Chicago Center
Tue 11:16:55 PM 42.3847 -83.7828 79° East 497 572 35,000  Level Chicago Center
Tue 11:18:16 PM 42.4075 -83.5389 83° East 488 562 35,000  Level Cleveland Center
Tue 11:19:16 PM 42.4144 -83.3506 87° East 496 571 35,000  Level Cleveland Center
Tue 11:20:16 PM 42.4231 -83.1569 86° East 502 578 35,000  Level Cleveland Center
Tue 11:21:16 PM 42.4294 -82.9603 87° East 508 585 35,000  Level Cleveland Center
Tue 11:22:16 PM 42.4353 -82.7692 88° East 514 592 35,000  Level Cleveland Center
Tue 11:23:16 PM 42.4411 -82.5556 88° East 514 592 35,000  Level Cleveland Center
Tue 11:24:16 PM 42.4486 -82.3617 87° East 514 592 35,000  Level Cleveland Center
Tue 11:25:16 PM 42.4533 -82.1675 88° East 514 592 35,000  Level Cleveland Center
Tue 11:26:16 PM 42.4581 -81.9733 88° East 514 592 35,000  Level Cleveland Center
Tue 11:27:16 PM 42.4603 -81.7764 89° East 514 592 35,000  Level Cleveland Center
Tue 11:28:16 PM 42.4683 -81.5825 87° East 514 592 35,000  Level Cleveland Center
Tue 11:29:16 PM 42.4719 -81.4081 88° East 522 601 35,000  Level Cleveland Center
Tue 11:30:16 PM 42.4753 -81.2108 89° East 516 594 35,000  Level Cleveland Center
Tue 11:31:16 PM 42.4781 -81.0167 89° East 516 594 35,000  Level Cleveland Center
Tue 11:32:16 PM 42.4808 -80.8225 89° East 516 594 35,000  Level Cleveland Center
Tue 11:33:16 PM 42.4811 -80.6253 90° East 511 588 35,000  Level Cleveland Center
Tue 11:34:16 PM 42.4892 -80.4339 87° East 518 596 35,000  Level Cleveland Center
Tue 11:35:16 PM 42.5158 -80.2228 80° East 513 590 35,000  Level Cleveland Center
Tue 11:36:16 PM 42.5444 -80.0364 78° East 514 592 35,000  Level Cleveland Center
Tue 11:37:16 PM 42.5725 -79.8642 77° East 509 586 35,000  Level Cleveland Center
Tue 11:38:16 PM 42.5983 -79.6750 79° East 509 586 35,000 -50 Level Cleveland Center
Tue 11:39:16 PM 42.6239 -79.4856 80° East 509 586 34,900  Descending Cleveland Center
Tue 11:40:16 PM 42.6511 -79.2931 79° East 509 586 35,000 50 Climbing Cleveland Center
Tue 11:41:16 PM 42.6778 -79.1006 79° East 509 586 35,000  Level Cleveland Center
Tue 11:42:16 PM 42.7025 -78.9106 80° East 509 586 35,000  Level Cleveland Center
Tue 11:43:16 PM 42.7267 -78.7206 80° East 509 586 35,000  Level Cleveland Center
Tue 11:44:16 PM 42.7525 -78.5247 80° East 509 586 35,000  Level Cleveland Center
Tue 11:45:16 PM 42.7781 -78.3344 80° East 509 586 35,000  Level Cleveland Center
Tue 11:46:16 PM 42.8011 -78.1383 81° East 509 586 35,000  Level Cleveland Center
Tue 11:47:16 PM 42.8281 -77.9447 79° East 509 586 35,000  Level Cleveland Center
Tue 11:48:16 PM 42.8528 -77.7511 80° East 514 592 35,000  Level Cleveland Center
Tue 11:50:22 PM 42.9022 -77.3219 81° East 519 597 35,000  Level Boston Center
Tue 11:51:23 PM 42.9192 -77.1644 82° East 519 597 35,000  Level Boston Center
Tue 11:52:22 PM 42.9447 -76.9508 81° East 519 597 35,000  Level Boston Center
Tue 11:53:23 PM 42.9692 -76.7481 81° East 524 603 35,000  Level Boston Center
Tue 11:54:23 PM 42.9931 -76.5539 80° East 524 603 35,000  Level Boston Center
Tue 11:55:24 PM 43.0125 -76.3564 82° East 524 603 35,000  Level Boston Center
Tue 11:56:22 PM 43.0358 -76.1589 81° East 519 597 35,000  Level Boston Center
Tue 11:57:24 PM 43.0567 -75.9611 82° East 519 597 35,000  Level Boston Center
Tue 11:58:23 PM 43.0772 -75.7633 82° East 519 597 35,000  Level Boston Center
Tue 11:59:22 PM 43.0950 -75.5736 83° East 519 597 35,000  Level Boston Center
Wed 12:00:23 AM 43.1150 -75.3756 82° East 514 592 35,000  Level Boston Center
Wed 12:01:22 AM 43.1344 -75.1772 82° East 520 598 35,000  Level Boston Center
Wed 12:02:23 AM 43.1536 -74.9789 82° East 520 598 35,000  Level Boston Center
Wed 12:03:24 AM 43.1772 -74.7606 81° East 520 598 35,000  Level Boston Center
Wed 12:04:23 AM 43.2017 -74.5622 80° East 520 598 35,000  Level Boston Center
Wed 12:05:23 AM 43.2261 -74.3636 80° East 520 598 35,000  Level Boston Center
Wed 12:06:22 AM 43.2500 -74.1675 80° East 520 598 35,000  Level Boston Center
Wed 12:07:24 AM 43.2739 -73.9686 81° East 520 598 35,000 -50 Level Boston Center
Wed 12:08:22 AM 43.2950 -73.7722 82° East 520 598 34,900  Descending Boston Center
Wed 12:09:25 AM 43.3178 -73.5958 80° East 520 598 35,000 50 Climbing Boston Center
Wed 12:10:22 AM 43.3383 -73.4050 82° East 520 598 35,000  Level Boston Center
Wed 12:11:23 AM 43.3669 -73.1911 80° East 520 598 35,000  Level Boston Center
Wed 12:12:23 AM 43.3869 -73.0028 82° East 509 586 35,000  Level Boston Center
Wed 12:13:24 AM 43.4086 -72.8117 81° East 504 580 35,000 -303 Level Boston Center
Wed 12:14:22 AM 43.4297 -72.6172 81° East 504 580 34,400 -1,800 Descending Boston Center
Wed 12:15:24 AM 43.4486 -72.4286 82° East 499 574 31,400 -2,900 Descending Boston Center
Wed 12:16:22 AM 43.4653 -72.2483 83° East 499 574 28,600 -2,850 Descending Boston Center
Wed 12:17:24 AM 43.4856 -72.0625 81° East 485 558 25,700 -2,850 Descending Boston Center
Wed 12:18:22 AM 43.5036 -71.8847 82° East 485 558 22,900 -2,824 Descending Boston Center
Wed 12:19:23 AM 43.5192 -71.7042 83° East 485 558 20,100 -2,550 Descending Boston Center
Wed 12:20:22 AM 43.5350 -71.5581 81° East 454 522 17,800 -2,571 Descending Boston Center
Wed 12:21:22 AM 43.5500 -71.3889 83° East 417 480 15,000 -2,600 Descending Boston Center
Wed 12:22:22 AM 43.5633 -71.2397 83° East 398 458 12,600 -1,950 Descending Boston Center
Wed 12:23:22 AM 43.5850 -71.1217 76° East 364 419 11,100 -1,400 Descending Boston Center
Wed 12:24:22 AM 43.6253 -71.0061 64° Northeast 313 360 9,800 -1,500 Descending Boston Center
Wed 12:25:22 AM 43.6572 -70.9164 64° Northeast 283 326 8,100 -1,785 Descending Boston Center
Wed 12:26:23 AM 43.6767 -70.8011 77° East 276 318 6,200 -1,750 Descending Boston Center
Wed 12:27:22 AM 43.6708 -70.6950 94° East 276 318 4,600 -1,160 Descending Boston Center
Wed 12:28:22 AM 43.6650 -70.5947 95° East 265 305 3,900 -950 Descending Boston Center
Wed 12:29:22 AM 43.6575 -70.5117 97° East 233 268 2,700 -1,091 Descending Boston Center
Wed 12:30:23 AM 43.6542 -70.4400 94° East 197 227 1,700 -900 Descending Boston Center
Wed 12:31:22 AM 43.6511 -70.3883 95° East 159 183 900 -807 Descending Boston Center
Wed 12:32:22 AM 43.6481 -70.3311 94° East 143 165 100 -800 Descending Boston Center

Login

Don't have an account? Register now (free) for customized features, flight alerts, and more!